Time;durP1;ratioP1;P1;durP2;ratioP2;P2;SDS_P1;SDS_P2;PMS_P1;PMS_P2;Temp;Humidity;BMP_temperature;BMP_pressure;BME280_temperature;BME280_humidity;BME280_pressure;Samples;Min_cycle;Max_cycle;Signal;HPM_P1;HPM_P2
2023/04/07 00:00:51;;;;;;;4.10;3.70;;;4.20;72.40;;;;;;5113237;28;20165;-75
2023/04/07 00:03:17;;;;;;;4.93;3.53;;;4.00;72.70;;;;;;5113528;28;20170;-76
2023/04/07 00:05:43;;;;;;;4.13;3.67;;;4.00;72.50;;;;;;5113508;28;20169;-78
2023/04/07 00:08:09;;;;;;;3.93;3.63;;;3.90;72.90;;;;;;5113481;28;20181;-81
2023/04/07 00:10:35;;;;;;;4.00;3.60;;;3.90;73.30;;;;;;5113541;28;20184;-78
2023/04/07 00:13:00;;;;;;;4.10;3.80;;;4.00;73.00;;;;;;5113421;28;20166;-79
2023/04/07 00:15:26;;;;;;;5.53;3.80;;;4.10;73.40;;;;;;5113994;28;20227;-81
2023/04/07 00:17:52;;;;;;;4.30;3.77;;;4.10;72.70;;;;;;5118818;28;20211;-78
2023/04/07 00:20:18;;;;;;;4.03;3.73;;;4.00;72.60;;;;;;5114237;28;20173;-78
2023/04/07 00:22:44;;;;;;;4.97;3.53;;;4.00;73.00;;;;;;5113346;28;20169;-81
2023/04/07 00:25:10;;;;;;;3.57;3.27;;;4.00;73.50;;;;;;5113287;28;20636;-81
2023/04/07 00:27:35;;;;;;;3.67;3.00;;;3.80;73.70;;;;;;5113245;28;20210;-78
2023/04/07 00:30:03;;;;;;;3.63;3.33;;;3.80;74.10;;;;;;5112972;28;20178;-80
2023/04/07 00:32:28;;;;;;;3.33;3.03;;;3.80;73.50;;;;;;5112790;28;20224;-78
2023/04/07 00:34:54;;;;;;;3.80;3.30;;;3.80;73.50;;;;;;5112882;28;20170;-82
2023/04/07 00:37:20;;;;;;;4.13;3.30;;;3.60;73.70;;;;;;5112772;28;20247;-80
2023/04/07 00:39:46;;;;;;;3.83;3.47;;;3.60;73.60;;;;;;5114450;28;20182;-80
2023/04/07 00:42:12;;;;;;;3.13;2.93;;;3.50;73.90;;;;;;5112719;28;20174;-78
2023/04/07 00:44:37;;;;;;;4.30;3.30;;;3.40;73.90;;;;;;5092838;28;20230;-76
2023/04/07 00:47:03;;;;;;;3.43;3.20;;;3.50;73.80;;;;;;5112527;28;20179;-78
2023/04/07 00:49:30;;;;;;;3.73;3.30;;;3.50;73.80;;;;;;5112767;28;20211;-80
2023/04/07 00:52:00;;;;;;;4.10;3.47;;;3.60;74.20;;;;;;5112829;28;20182;-82
2023/04/07 00:54:26;;;;;;;3.63;3.33;;;3.60;74.00;;;;;;5112761;28;20259;-77
2023/04/07 00:56:52;;;;;;;3.60;3.40;;;3.50;73.70;;;;;;5113401;28;20181;-81
2023/04/07 00:59:19;;;;;;;3.80;3.50;;;3.30;74.20;;;;;;5113322;28;20209;-80
2023/04/07 01:02:31;;;;;;;4.20;3.80;;;3.30;74.20;;;;;;5094324;28;20170;-81
2023/04/07 01:05:26;;;;;;;3.83;3.53;;;3.30;74.80;;;;;;5101758;28;20182;-80
2023/04/07 01:08:19;;;;;;;3.60;3.30;;;3.40;75.50;;;;;;5112320;28;20178;-78
2023/04/07 01:10:59;;;;;;;6.47;3.73;;;3.30;75.00;;;;;;5112306;28;20275;-75
2023/04/07 01:13:35;;;;;;;3.73;3.43;;;3.50;75.00;;;;;;5113759;28;20296;-75
2023/04/07 01:16:08;;;;;;;4.03;3.63;;;3.40;75.20;;;;;;5116541;28;20617;-77
2023/04/07 01:18:37;;;;;;;4.33;3.80;;;3.30;75.80;;;;;;5116308;28;20652;-77
2023/04/07 01:21:06;;;;;;;3.80;3.50;;;3.40;75.60;;;;;;5116399;28;20162;-77
2023/04/07 01:23:35;;;;;;;3.80;3.50;;;3.40;76.00;;;;;;5116197;28;20199;-75
2023/04/07 01:26:21;;;;;;;3.70;3.40;;;3.40;75.90;;;;;;5116195;28;20176;-74
2023/04/07 01:29:25;;;;;;;4.03;3.73;;;3.40;76.00;;;;;;5116260;28;20179;-75
2023/04/07 01:31:53;;;;;;;5.37;3.90;;;3.50;75.50;;;;;;5116107;28;20231;-75
2023/04/07 01:34:21;;;;;;;3.97;3.63;;;3.40;75.50;;;;;;5116238;28;20180;-75
2023/04/07 01:36:48;;;;;;;3.97;3.50;;;3.70;75.70;;;;;;5119160;28;20180;-76
2023/04/07 01:39:15;;;;;;;3.80;3.50;;;3.50;75.90;;;;;;5116182;28;20170;-77
2023/04/07 01:41:42;;;;;;;4.87;3.77;;;3.40;76.80;;;;;;5115952;28;20166;-74
2023/04/07 01:44:09;;;;;;;4.23;3.60;;;3.30;76.10;;;;;;5115829;28;20186;-77
2023/04/07 01:46:35;;;;;;;3.97;3.50;;;3.30;76.50;;;;;;5115819;28;20165;-77
2023/04/07 01:49:02;;;;;;;6.23;3.83;;;3.30;76.30;;;;;;5115861;28;20565;-77
2023/04/07 01:51:29;;;;;;;4.30;3.60;;;3.40;76.40;;;;;;5115743;28;20173;-76
2023/04/07 01:53:56;;;;;;;5.17;3.80;;;3.40;77.00;;;;;;5115808;28;20173;-75
2023/04/07 01:56:22;;;;;;;5.80;4.30;;;3.50;76.30;;;;;;5115727;28;20177;-75
2023/04/07 01:58:47;;;;;;;3.70;3.40;;;3.50;76.20;;;;;;5115565;28;20537;-74
2023/04/07 02:01:14;;;;;;;5.20;3.40;;;3.50;76.20;;;;;;5115564;28;20173;-79
2023/04/07 02:03:45;;;;;;;3.67;3.47;;;3.60;76.40;;;;;;5097463;28;20512;-76
2023/04/07 02:06:14;;;;;;;5.57;3.80;;;3.50;76.50;;;;;;5115522;28;20196;-76
2023/04/07 02:08:47;;;;;;;3.97;3.60;;;3.40;76.60;;;;;;5115641;28;20177;-79
2023/04/07 02:11:16;;;;;;;3.87;3.57;;;3.30;76.30;;;;;;5115579;28;20246;-77
2023/04/07 02:13:43;;;;;;;4.03;3.73;;;3.30;76.60;;;;;;5115304;28;20691;-79
2023/04/07 02:16:11;;;;;;;4.63;3.27;;;3.40;76.40;;;;;;5115463;28;20249;-80
2023/04/07 02:18:37;;;;;;;4.70;3.70;;;3.30;76.50;;;;;;5116373;28;20201;-76
2023/04/07 02:21:04;;;;;;;4.00;3.67;;;3.20;76.60;;;;;;5115383;28;20589;-76
2023/04/07 02:23:33;;;;;;;4.30;3.70;;;3.40;76.30;;;;;;5115123;28;20174;-78
2023/04/07 02:25:59;;;;;;;4.13;3.80;;;3.50;76.10;;;;;;5115121;28;20207;-78
2023/04/07 02:28:24;;;;;;;4.00;3.70;;;3.50;76.20;;;;;;5116752;28;20240;-80
2023/04/07 02:30:50;;;;;;;4.43;3.87;;;3.50;76.20;;;;;;5115708;28;20201;-83
2023/04/07 02:33:16;;;;;;;4.27;3.27;;;3.50;76.50;;;;;;5115291;28;20219;-80
2023/04/07 02:35:42;;;;;;;3.77;3.47;;;3.40;76.40;;;;;;5096809;28;20225;-78
2023/04/07 02:38:07;;;;;;;4.57;4.27;;;3.40;76.50;;;;;;5115715;28;20204;-76
2023/04/07 02:40:35;;;;;;;4.17;3.77;;;3.40;76.80;;;;;;5117386;28;20177;-82
2023/04/07 02:43:01;;;;;;;5.50;4.20;;;3.40;76.80;;;;;;5096667;28;20180;-82
2023/04/07 02:45:27;;;;;;;3.97;3.67;;;3.40;76.70;;;;;;5096667;28;20180;-81
2023/04/07 02:47:52;;;;;;;3.97;3.63;;;3.30;76.50;;;;;;5114962;28;20178;-81
2023/04/07 02:50:18;;;;;;;3.90;3.60;;;3.30;77.10;;;;;;5114872;28;20912;-79
2023/04/07 02:52:44;;;;;;;5.17;3.90;;;3.30;76.80;;;;;;5115688;28;20181;-76
2023/04/07 02:55:10;;;;;;;4.10;3.70;;;3.30;76.50;;;;;;5099602;28;20177;-75
2023/04/07 02:57:36;;;;;;;3.57;3.23;;;3.40;76.90;;;;;;5117315;28;20287;-81
2023/04/07 03:00:03;;;;;;;7.27;3.50;;;3.30;76.40;;;;;;5114700;28;20260;-78
2023/04/07 03:02:28;;;;;;;3.73;3.43;;;3.40;76.40;;;;;;5114713;28;20530;-76
2023/04/07 03:04:54;;;;;;;3.97;3.70;;;3.30;76.40;;;;;;5114482;28;20199;-77
2023/04/07 03:07:20;;;;;;;3.67;3.37;;;3.20;76.50;;;;;;5096044;28;20277;-76
2023/04/07 03:09:45;;;;;;;3.90;3.60;;;3.20;76.70;;;;;;5114476;28;20162;-76
2023/04/07 03:12:11;;;;;;;3.93;3.50;;;3.20;76.70;;;;;;5114297;28;20169;-76
2023/04/07 03:14:37;;;;;;;3.70;3.33;;;3.20;76.60;;;;;;5111935;28;20232;-77
2023/04/07 03:17:03;;;;;;;5.63;3.87;;;3.30;76.50;;;;;;5114325;28;20258;-78
2023/04/07 03:19:29;;;;;;;3.80;3.40;;;3.30;76.70;;;;;;5113896;28;20637;-76
2023/04/07 03:21:55;;;;;;;5.13;3.93;;;3.30;76.90;;;;;;5113927;28;20181;-76
2023/04/07 03:24:21;;;;;;;4.27;3.87;;;3.30;77.20;;;;;;5111700;28;20241;-78
2023/04/07 03:26:47;;;;;;;4.10;3.47;;;3.30;77.00;;;;;;5106094;28;20204;-76
2023/04/07 03:29:12;;;;;;;4.23;3.83;;;3.40;76.70;;;;;;5114428;28;20171;-82
2023/04/07 03:31:38;;;;;;;3.50;3.20;;;3.30;76.80;;;;;;5114336;28;20643;-81
2023/04/07 03:34:04;;;;;;;6.57;3.80;;;3.30;76.80;;;;;;5114918;28;20590;-77
2023/04/07 03:36:33;;;;;;;4.37;3.97;;;3.30;77.20;;;;;;5112630;28;20173;-76
2023/04/07 03:38:59;;;;;;;4.00;3.60;;;3.40;77.30;;;;;;5109842;28;20592;-76
2023/04/07 03:41:25;;;;;;;4.17;3.43;;;3.40;77.40;;;;;;5113020;28;20181;-74
2023/04/07 03:43:50;;;;;;;3.83;3.53;;;3.50;77.30;;;;;;5104522;28;20673;-75
2023/04/07 03:46:18;;;;;;;4.07;3.77;;;3.60;77.60;;;;;;5109927;28;20239;-75
2023/04/07 03:48:45;;;;;;;4.03;3.73;;;3.50;77.30;;;;;;5113453;28;20178;-77
2023/04/07 03:51:11;;;;;;;4.60;4.20;;;3.60;77.90;;;;;;5112706;28;20168;-78
2023/04/07 03:53:36;;;;;;;4.63;3.83;;;3.60;77.20;;;;;;5095007;28;20710;-77
2023/04/07 03:56:02;;;;;;;4.57;4.10;;;3.60;77.10;;;;;;5111650;28;20574;-76
2023/04/07 03:58:28;;;;;;;4.37;3.57;;;3.70;77.40;;;;;;5113305;28;20218;-77
2023/04/07 04:00:54;;;;;;;3.97;3.57;;;3.60;77.20;;;;;;5112991;28;20206;-77
2023/04/07 04:03:20;;;;;;;4.87;4.33;;;3.70;77.40;;;;;;5112791;28;20232;-79
2023/04/07 04:05:45;;;;;;;4.47;4.03;;;3.70;77.50;;;;;;5113301;28;20951;-75
2023/04/07 04:08:11;;;;;;;4.60;4.17;;;3.70;77.00;;;;;;5113255;28;20264;-76
2023/04/07 04:10:37;;;;;;;6.80;4.30;;;3.70;77.70;;;;;;5111657;28;20178;-80
2023/04/07 04:13:05;;;;;;;5.13;3.87;;;3.60;78.00;;;;;;5114885;28;20202;-76
2023/04/07 04:15:31;;;;;;;4.43;4.10;;;3.60;78.00;;;;;;5114192;28;20618;-77
2023/04/07 04:17:57;;;;;;;4.83;4.43;;;3.60;78.00;;;;;;5110308;28;20211;-77
2023/04/07 04:20:23;;;;;;;4.10;3.70;;;3.70;78.00;;;;;;5100396;27;20174;-76
2023/04/07 04:22:48;;;;;;;4.40;4.00;;;3.60;78.40;;;;;;5097178;28;20200;-78
2023/04/07 04:25:16;;;;;;;4.80;3.87;;;3.50;78.20;;;;;;5097817;28;20242;-77
2023/04/07 04:27:42;;;;;;;5.57;3.97;;;3.40;78.90;;;;;;5103811;28;20173;-78
2023/04/07 04:30:08;;;;;;;4.20;3.80;;;3.40;78.60;;;;;;5101420;28;20182;-78
2023/04/07 04:32:34;;;;;;;3.93;3.63;;;3.60;78.30;;;;;;5103394;28;20170;-77
2023/04/07 04:35:00;;;;;;;4.33;3.93;;;3.60;78.40;;;;;;5101325;28;20649;-75
2023/04/07 04:37:27;;;;;;;5.60;4.23;;;3.70;78.50;;;;;;5095839;28;20213;-76
2023/04/07 04:39:52;;;;;;;5.20;3.90;;;3.80;79.40;;;;;;5103125;28;20174;-78
2023/04/07 04:42:18;;;;;;;5.57;4.57;;;3.80;78.70;;;;;;5111124;28;20318;-76
2023/04/07 04:44:44;;;;;;;4.53;4.13;;;3.80;78.40;;;;;;5109042;28;20267;-76
2023/04/07 04:47:10;;;;;;;4.70;4.30;;;3.90;78.30;;;;;;5111713;28;20211;-75
2023/04/07 04:49:36;;;;;;;7.97;4.63;;;3.90;77.60;;;;;;5093028;28;20182;-77
2023/04/07 04:52:01;;;;;;;4.20;3.80;;;3.90;77.70;;;;;;5112026;28;20178;-76
2023/04/07 04:54:27;;;;;;;4.83;4.40;;;3.90;78.00;;;;;;5112449;28;20186;-80
2023/04/07 04:56:53;;;;;;;5.00;4.50;;;4.10;78.40;;;;;;5094356;28;20181;-75
2023/04/07 04:59:18;;;;;;;4.13;3.73;;;4.10;78.50;;;;;;5112760;28;20177;-75
2023/04/07 05:01:44;;;;;;;5.17;4.53;;;4.10;78.10;;;;;;5112100;28;20671;-76
2023/04/07 05:04:10;;;;;;;4.83;4.43;;;4.20;78.40;;;;;;5112126;28;20212;-75
2023/04/07 05:06:36;;;;;;;4.27;3.87;;;4.20;77.70;;;;;;5112580;28;20215;-74
2023/04/07 05:09:01;;;;;;;5.70;5.10;;;4.10;77.20;;;;;;5112207;28;20269;-78
2023/04/07 05:11:27;;;;;;;6.23;4.37;;;4.20;77.20;;;;;;5110017;28;20274;-77
2023/04/07 05:13:53;;;;;;;4.47;4.07;;;4.20;77.10;;;;;;5115756;28;20238;-80
2023/04/07 05:16:19;;;;;;;5.63;4.77;;;4.30;77.50;;;;;;5119994;28;20177;-76
2023/04/07 05:18:44;;;;;;;4.93;4.43;;;4.30;77.00;;;;;;5127444;28;20205;-76
2023/04/07 05:21:10;;;;;;;5.90;4.57;;;4.30;77.10;;;;;;5133074;28;20190;-78
2023/04/07 05:23:36;;;;;;;5.60;5.10;;;4.40;77.70;;;;;;5132799;28;20565;-76
2023/04/07 05:26:01;;;;;;;7.17;5.17;;;4.30;78.40;;;;;;5132896;28;20173;-77
2023/04/07 05:28:27;;;;;;;6.70;5.50;;;4.20;79.30;;;;;;5132738;28;20629;-76
2023/04/07 05:30:53;;;;;;;5.73;5.23;;;4.30;79.60;;;;;;5132837;28;20180;-77
2023/04/07 05:33:18;;;;;;;8.00;5.97;;;4.40;79.80;;;;;;5135248;28;20256;-77
2023/04/07 05:35:45;;;;;;;11.47;5.50;;;4.40;79.70;;;;;;5133177;28;20596;-77
2023/04/07 05:38:11;;;;;;;8.83;5.10;;;4.60;79.30;;;;;;5132843;28;20202;-79
2023/04/07 05:40:36;;;;;;;9.03;5.53;;;4.60;79.20;;;;;;5132668;28;20518;-77
2023/04/07 05:43:02;;;;;;;8.80;5.40;;;4.50;79.20;;;;;;5132956;28;20176;-80
2023/04/07 05:45:28;;;;;;;6.20;5.20;;;4.50;78.70;;;;;;5133068;28;20619;-76
2023/04/07 05:47:54;;;;;;;10.30;5.53;;;4.50;79.40;;;;;;5132681;28;20195;-75
2023/04/07 05:50:19;;;;;;;7.53;5.70;;;4.50;79.70;;;;;;5100945;28;20638;-77
2023/04/07 05:52:45;;;;;;;8.33;4.70;;;4.50;78.80;;;;;;5111799;28;20170;-78
2023/04/07 05:55:11;;;;;;;7.00;5.57;;;4.60;78.70;;;;;;5093562;28;20185;-80
2023/04/07 05:57:37;;;;;;;6.00;5.40;;;4.70;79.50;;;;;;5111994;28;20201;-77
2023/04/07 06:00:03;;;;;;;9.47;5.30;;;4.70;79.40;;;;;;5114245;28;20171;-80
2023/04/07 06:02:29;;;;;;;10.67;5.97;;;4.70;79.60;;;;;;5096916;28;20181;-81
2023/04/07 06:04:55;;;;;;;12.30;7.80;;;4.70;79.20;;;;;;5115661;28;20660;-78
2023/04/07 06:07:21;;;;;;;11.30;7.00;;;4.80;78.90;;;;;;5115810;28;20178;-79
2023/04/07 06:09:46;;;;;;;12.80;6.67;;;4.90;79.50;;;;;;5115969;28;20202;-81
2023/04/07 06:12:13;;;;;;;8.13;6.07;;;4.90;78.60;;;;;;5097006;28;20815;-83
2023/04/07 06:14:39;;;;;;;8.90;5.60;;;4.90;77.90;;;;;;5115023;28;20215;-79
2023/04/07 06:17:05;;;;;;;9.33;6.30;;;5.00;78.50;;;;;;5116501;28;20196;-78
2023/04/07 06:19:31;;;;;;;8.47;5.40;;;5.10;78.60;;;;;;5121005;28;20178;-82
2023/04/07 06:21:57;;;;;;;8.50;6.27;;;5.10;78.30;;;;;;5115114;28;20176;-80
2023/04/07 06:24:24;;;;;;;9.73;6.13;;;5.10;78.40;;;;;;5115359;28;20179;-81
2023/04/07 06:26:53;;;;;;;8.63;6.07;;;5.20;78.70;;;;;;5115646;28;20207;-79
2023/04/07 06:29:19;;;;;;;6.10;5.50;;;5.40;77.80;;;;;;5115010;28;20247;-80
2023/04/07 06:31:45;;;;;;;6.20;5.60;;;5.60;77.50;;;;;;5116122;28;20528;-75
2023/04/07 06:34:11;;;;;;;14.30;6.80;;;5.70;76.50;;;;;;5115371;28;20172;-78
2023/04/07 06:36:36;;;;;;;11.50;6.47;;;5.90;76.20;;;;;;5115384;28;20170;-79
2023/04/07 06:39:02;;;;;;;15.23;7.23;;;6.00;76.30;;;;;;5116309;28;20204;-80
2023/04/07 06:41:28;;;;;;;12.30;6.87;;;6.10;76.70;;;;;;5114840;28;20177;-78
2023/04/07 06:43:54;;;;;;;11.03;6.60;;;6.30;76.60;;;;;;5115015;28;20225;-77
2023/04/07 06:46:20;;;;;;;9.63;6.53;;;6.40;76.60;;;;;;5115594;28;20250;-77
2023/04/07 06:48:46;;;;;;;11.87;7.33;;;6.60;76.70;;;;;;5115010;28;20182;-83
2023/04/07 06:51:12;;;;;;;6.20;5.47;;;6.70;76.20;;;;;;5116528;28;20200;-79
2023/04/07 06:53:37;;;;;;;10.10;5.80;;;6.90;73.30;;;;;;5119250;28;20184;-77
2023/04/07 06:56:03;;;;;;;9.90;6.07;;;7.00;73.20;;;;;;5115322;28;20664;-77
2023/04/07 06:58:29;;;;;;;8.43;5.80;;;7.10;73.60;;;;;;5114621;28;20225;-75
2023/04/07 07:00:54;;;;;;;8.67;4.93;;;7.20;72.60;;;;;;5113943;28;20175;-77
2023/04/07 07:03:20;;;;;;;8.03;5.60;;;7.40;71.90;;;;;;5113193;28;20187;-78
2023/04/07 07:05:46;;;;;;;8.60;5.60;;;7.40;71.70;;;;;;5113728;28;20181;-76
2023/04/07 07:08:12;;;;;;;9.07;6.43;;;7.50;72.10;;;;;;5114207;28;20213;-75
2023/04/07 07:10:37;;;;;;;8.63;5.70;;;7.60;72.00;;;;;;5112999;28;20172;-77
2023/04/07 07:13:03;;;;;;;9.23;5.20;;;7.70;72.70;;;;;;5113933;28;20523;-76
2023/04/07 07:15:29;;;;;;;8.03;5.57;;;7.70;71.90;;;;;;5113985;28;20744;-75
2023/04/07 07:17:55;;;;;;;11.73;5.40;;;7.80;71.00;;;;;;5114006;28;20731;-76
2023/04/07 07:20:22;;;;;;;7.53;5.43;;;7.90;71.30;;;;;;5095841;28;20201;-75
2023/04/07 07:22:49;;;;;;;8.83;6.07;;;8.00;70.40;;;;;;5113328;28;20172;-77
2023/04/07 07:25:15;;;;;;;6.83;5.57;;;7.90;70.60;;;;;;5095796;28;20186;-76
2023/04/07 07:27:41;;;;;;;7.20;5.90;;;8.00;71.50;;;;;;5113751;28;20176;-78
2023/04/07 07:30:07;;;;;;;10.37;6.53;;;8.10;70.90;;;;;;5113996;28;20201;-77
2023/04/07 07:32:33;;;;;;;8.63;5.50;;;8.20;70.50;;;;;;5113345;28;20190;-77
2023/04/07 07:34:59;;;;;;;9.23;6.20;;;8.40;70.30;;;;;;5113840;28;20161;-76
2023/04/07 07:37:24;;;;;;;8.00;5.97;;;8.50;69.90;;;;;;5113669;28;20201;-75
2023/04/07 07:39:50;;;;;;;10.00;6.37;;;8.70;69.70;;;;;;5113740;28;20532;-78
2023/04/07 07:42:16;;;;;;;9.67;6.50;;;8.80;69.50;;;;;;5113355;28;20200;-76
2023/04/07 07:44:41;;;;;;;12.77;6.27;;;9.00;69.90;;;;;;5113727;28;20199;-79
2023/04/07 07:47:08;;;;;;;9.73;6.50;;;9.10;70.30;;;;;;5113722;28;20637;-76
2023/04/07 07:49:34;;;;;;;8.23;6.43;;;9.20;69.80;;;;;;5113615;28;20172;-75
2023/04/07 07:52:00;;;;;;;5.93;5.40;;;9.30;69.10;;;;;;5112948;28;20256;-76
2023/04/07 07:54:25;;;;;;;7.50;6.10;;;9.30;67.00;;;;;;5095158;28;20265;-77
2023/04/07 07:56:51;;;;;;;7.80;5.70;;;9.30;66.10;;;;;;5113472;28;20174;-76
2023/04/07 07:59:17;;;;;;;7.97;5.53;;;9.50;65.60;;;;;;5113400;28;20308;-77
2023/04/07 08:01:43;;;;;;;6.40;5.73;;;9.50;64.80;;;;;;5113105;28;20337;-79
2023/04/07 08:04:08;;;;;;;11.00;5.67;;;9.60;64.70;;;;;;5113171;28;20510;-76
2023/04/07 08:06:35;;;;;;;6.97;6.27;;;9.80;64.10;;;;;;5113479;28;20227;-75
2023/04/07 08:09:01;;;;;;;6.23;5.60;;;10.00;62.90;;;;;;5113318;28;20521;-75
2023/04/07 08:11:27;;;;;;;6.57;5.50;;;10.10;63.20;;;;;;5115019;28;20182;-76
2023/04/07 08:13:53;;;;;;;5.63;5.13;;;10.20;62.90;;;;;;5115396;28;20226;-76
2023/04/07 08:16:20;;;;;;;7.67;5.30;;;10.30;61.50;;;;;;5096265;28;20549;-75
2023/04/07 08:18:46;;;;;;;5.83;4.97;;;10.40;60.70;;;;;;5113796;28;20253;-75
2023/04/07 08:21:12;;;;;;;5.70;4.90;;;10.50;60.00;;;;;;5114591;28;20562;-74
2023/04/07 08:23:41;;;;;;;7.67;5.07;;;10.70;59.20;;;;;;5112767;28;20192;-77
2023/04/07 08:26:06;;;;;;;5.73;4.50;;;10.80;57.60;;;;;;5094944;28;20180;-79
2023/04/07 08:28:32;;;;;;;6.97;5.03;;;10.70;57.30;;;;;;5113049;28;20173;-78
2023/04/07 08:30:58;;;;;;;7.83;4.07;;;10.70;57.30;;;;;;5113824;28;20179;-76
2023/04/07 08:33:24;;;;;;;7.30;4.50;;;10.70;57.20;;;;;;5113054;28;20182;-76
2023/04/07 08:35:50;;;;;;;4.73;4.30;;;10.70;57.30;;;;;;5113358;28;20207;-77
2023/04/07 08:38:16;;;;;;;6.93;4.60;;;10.80;57.00;;;;;;5112510;28;20740;-77
2023/04/07 08:40:42;;;;;;;6.27;4.57;;;10.80;56.10;;;;;;5113066;28;20169;-76
2023/04/07 08:43:08;;;;;;;5.90;4.40;;;10.90;55.60;;;;;;5112399;28;20176;-75
2023/04/07 08:45:39;;;;;;;5.03;4.27;;;10.90;55.30;;;;;;5112805;28;20168;-77
2023/04/07 08:48:15;;;;;;;6.97;4.80;;;10.90;55.30;;;;;;5112914;28;20188;-75
2023/04/07 08:50:44;;;;;;;4.80;4.40;;;10.80;55.40;;;;;;5112738;28;20157;-77
2023/04/07 08:53:17;;;;;;;5.13;4.07;;;10.80;54.80;;;;;;5112652;28;20268;-77
2023/04/07 08:55:43;;;;;;;4.00;3.70;;;10.80;54.90;;;;;;5112879;28;20161;-77
2023/04/07 08:58:12;;;;;;;6.53;4.10;;;10.90;54.20;;;;;;5112826;28;20246;-76
2023/04/07 09:00:40;;;;;;;4.23;3.93;;;10.90;53.60;;;;;;5112901;28;20180;-78
2023/04/07 09:03:07;;;;;;;4.87;4.20;;;11.00;53.30;;;;;;5093880;28;20215;-76
2023/04/07 09:05:34;;;;;;;3.87;3.57;;;11.10;54.20;;;;;;5112516;28;20174;-78
2023/04/07 09:08:00;;;;;;;12.67;4.93;;;11.00;54.90;;;;;;5112774;28;20208;-77
2023/04/07 09:10:26;;;;;;;6.63;4.43;;;11.00;56.60;;;;;;5111667;28;20189;-74
2023/04/07 09:12:51;;;;;;;6.17;4.33;;;11.10;56.00;;;;;;5093796;28;20181;-76
2023/04/07 09:15:18;;;;;;;4.63;4.23;;;11.30;55.20;;;;;;5112159;28;20229;-77
2023/04/07 09:17:43;;;;;;;3.93;3.50;;;11.50;54.20;;;;;;5112521;28;20215;-79
2023/04/07 09:20:10;;;;;;;4.47;3.93;;;11.60;54.40;;;;;;5111791;28;20405;-78
2023/04/07 09:22:36;;;;;;;4.37;3.47;;;11.70;54.00;;;;;;5094056;28;20182;-76
2023/04/07 09:25:12;;;;;;;4.43;3.97;;;11.80;54.20;;;;;;5112104;28;20181;-76
2023/04/07 09:27:38;;;;;;;4.13;3.73;;;11.90;52.80;;;;;;5112340;28;20181;-77
2023/04/07 09:30:16;;;;;;;7.33;4.37;;;12.00;53.60;;;;;;5113737;28;20189;-75
2023/04/07 09:32:41;;;;;;;5.10;3.77;;;12.10;53.50;;;;;;5112504;28;20174;-75
2023/04/07 09:35:08;;;;;;;4.60;3.80;;;12.20;53.10;;;;;;5114792;28;20173;-75
2023/04/07 09:37:33;;;;;;;4.07;3.63;;;12.20;53.20;;;;;;5116136;28;20197;-74
2023/04/07 09:40:00;;;;;;;4.90;3.83;;;12.10;53.90;;;;;;5116166;28;20178;-74
2023/04/07 09:42:31;;;;;;;4.40;3.57;;;12.10;53.20;;;;;;5116354;28;20178;-75
2023/04/07 09:45:00;;;;;;;4.20;3.40;;;12.10;53.20;;;;;;5116450;28;20524;-75
2023/04/07 09:47:30;;;;;;;3.93;3.63;;;12.00;53.50;;;;;;5116160;28;20259;-76
2023/04/07 09:49:58;;;;;;;4.57;3.70;;;12.00;52.80;;;;;;5117398;28;20184;-75
2023/04/07 09:52:52;;;;;;;5.00;3.50;;;12.10;53.80;;;;;;5116018;28;20207;-75
2023/04/07 09:55:22;;;;;;;3.83;3.50;;;12.30;52.80;;;;;;5115048;28;20234;-75
2023/04/07 09:57:50;;;;;;;3.80;3.50;;;12.40;52.30;;;;;;5097225;28;20207;-74
2023/04/07 10:00:16;;;;;;;4.10;3.80;;;12.40;51.90;;;;;;5097738;28;20549;-74
2023/04/07 10:02:43;;;;;;;4.10;3.73;;;12.40;52.20;;;;;;5096761;28;20183;-78
2023/04/07 10:05:09;;;;;;;3.70;3.30;;;12.50;52.10;;;;;;5116425;28;20215;-75
2023/04/07 10:07:35;;;;;;;4.03;3.60;;;12.40;52.70;;;;;;5117758;28;20231;-78
2023/04/07 10:10:02;;;;;;;3.93;3.50;;;12.30;53.50;;;;;;5115266;28;20182;-77
2023/04/07 10:12:30;;;;;;;5.03;3.80;;;12.40;53.20;;;;;;5115970;28;20184;-77
2023/04/07 10:14:59;;;;;;;4.00;3.47;;;12.50;52.70;;;;;;5115649;28;20220;-75
2023/04/07 10:17:27;;;;;;;4.47;3.40;;;12.60;53.40;;;;;;5115641;28;20204;-75
2023/04/07 10:19:57;;;;;;;3.63;3.30;;;12.60;53.80;;;;;;5116024;28;20220;-75
2023/04/07 10:22:24;;;;;;;4.40;3.97;;;12.60;54.40;;;;;;5115443;28;20195;-75
2023/04/07 10:25:12;;;;;;;5.97;3.50;;;12.80;53.10;;;;;;5115341;28;20636;-75
2023/04/07 10:27:49;;;;;;;3.83;3.50;;;12.90;51.70;;;;;;5115620;28;20201;-82
2023/04/07 10:30:37;;;;;;;3.80;3.50;;;13.00;51.90;;;;;;5115591;28;20195;-80
2023/04/07 10:33:03;;;;;;;3.33;3.13;;;13.00;50.40;;;;;;5115215;28;20258;-82
2023/04/07 10:36:05;;;;;;;5.17;3.57;;;12.90;50.50;;;;;;5115251;28;20181;-78
2023/04/07 10:38:31;;;;;;;3.77;3.30;;;12.80;51.50;;;;;;5114220;28;20203;-82
2023/04/07 10:40:57;;;;;;;4.13;3.73;;;12.80;52.40;;;;;;5115437;28;20185;-78
2023/04/07 10:43:40;;;;;;;3.53;3.23;;;12.90;53.30;;;;;;5114068;28;20245;-80
2023/04/07 10:46:06;;;;;;;3.03;2.83;;;12.90;50.70;;;;;;5114798;28;20248;-80
2023/04/07 10:48:32;;;;;;;4.43;3.30;;;13.10;50.00;;;;;;5117378;28;20173;-77
2023/04/07 10:51:04;;;;;;;3.27;2.97;;;13.00;50.30;;;;;;5117822;28;20313;-77
2023/04/07 10:53:30;;;;;;;4.10;3.80;;;12.90;51.00;;;;;;5115081;28;20181;-76
2023/04/07 10:55:58;;;;;;;4.27;3.27;;;12.90;51.00;;;;;;5114081;28;20590;-78
2023/04/07 10:58:30;;;;;;;3.40;3.10;;;12.90;51.30;;;;;;5114918;28;20558;-74
2023/04/07 11:01:02;;;;;;;3.83;3.43;;;12.90;51.20;;;;;;5114580;28;20221;-77
2023/04/07 11:03:33;;;;;;;4.20;3.80;;;12.90;51.20;;;;;;5114583;28;20181;-77
2023/04/07 11:06:07;;;;;;;3.93;3.00;;;12.90;50.50;;;;;;5114591;28;20173;-75
2023/04/07 11:08:35;;;;;;;4.00;3.60;;;12.90;51.00;;;;;;5096150;28;20193;-77
2023/04/07 11:11:02;;;;;;;3.90;3.20;;;13.00;52.00;;;;;;5114393;28;20174;-76
2023/04/07 11:13:28;;;;;;;3.90;3.50;;;13.10;52.00;;;;;;5114147;28;20178;-80
2023/04/07 11:15:53;;;;;;;3.47;3.17;;;13.20;52.00;;;;;;5114229;28;20169;-76
2023/04/07 11:18:22;;;;;;;3.87;3.43;;;13.40;51.70;;;;;;5114469;28;20242;-75
2023/04/07 11:20:54;;;;;;;3.60;3.13;;;13.30;50.80;;;;;;5095779;28;20224;-75
2023/04/07 11:23:22;;;;;;;3.63;3.30;;;13.30;49.60;;;;;;5113923;28;20294;-75
2023/04/07 11:25:50;;;;;;;3.67;3.30;;;13.30;49.50;;;;;;5114018;28;20527;-79
2023/04/07 11:28:16;;;;;;;3.70;3.40;;;13.40;51.30;;;;;;5114129;28;20173;-75
2023/04/07 11:30:50;;;;;;;3.60;3.30;;;13.40;50.50;;;;;;5114106;28;20170;-76
2023/04/07 11:33:21;;;;;;;3.50;3.27;;;13.50;49.40;;;;;;5113338;28;20176;-75
2023/04/07 11:35:59;;;;;;;3.37;3.17;;;13.50;49.80;;;;;;5113385;28;20181;-77
2023/04/07 11:38:34;;;;;;;3.87;3.47;;;13.60;51.00;;;;;;5113830;28;20200;-78
2023/04/07 11:41:11;;;;;;;3.53;3.23;;;13.60;50.50;;;;;;5113893;28;20792;-75
2023/04/07 11:43:40;;;;;;;3.70;3.40;;;13.60;50.30;;;;;;5114669;28;20539;-76
2023/04/07 11:46:14;;;;;;;3.40;3.07;;;13.70;49.50;;;;;;5113382;28;20179;-75
2023/04/07 11:48:42;;;;;;;3.90;3.60;;;13.60;49.00;;;;;;5095036;28;20314;-75
2023/04/07 11:51:19;;;;;;;3.07;2.87;;;13.80;50.30;;;;;;5113426;28;20517;-76
2023/04/07 11:53:48;;;;;;;4.30;3.20;;;13.90;48.30;;;;;;5113098;28;20530;-77
2023/04/07 11:56:16;;;;;;;3.63;3.27;;;13.90;48.60;;;;;;5111425;28;20177;-76
2023/04/07 11:58:49;;;;;;;3.43;3.23;;;14.00;46.60;;;;;;5111547;28;20198;-77
2023/04/07 12:01:15;;;;;;;5.23;3.20;;;13.90;47.00;;;;;;5112305;28;20241;-82
2023/04/07 12:03:54;;;;;;;3.47;3.20;;;13.70;47.40;;;;;;5116627;28;20272;-77
2023/04/07 12:06:37;;;;;;;3.40;3.20;;;13.60;47.10;;;;;;5115643;28;20237;-83
2023/04/07 12:09:04;;;;;;;3.57;3.27;;;13.60;46.90;;;;;;5122443;28;20178;-76
2023/04/07 12:11:31;;;;;;;3.77;3.10;;;13.60;46.90;;;;;;5112983;28;20172;-79
2023/04/07 12:13:57;;;;;;;3.67;3.30;;;13.60;47.20;;;;;;5113136;28;20216;-80
2023/04/07 12:16:24;;;;;;;3.17;2.97;;;13.70;47.90;;;;;;5112678;28;20162;-76
2023/04/07 12:18:53;;;;;;;5.13;3.37;;;13.80;47.50;;;;;;5112695;28;20197;-76
2023/04/07 12:21:19;;;;;;;4.60;4.10;;;13.90;50.50;;;;;;5113110;28;20169;-74
2023/04/07 12:23:46;;;;;;;3.80;3.50;;;14.10;52.10;;;;;;5094342;28;20170;-78
2023/04/07 12:26:12;;;;;;;4.67;3.50;;;14.30;50.40;;;;;;5112400;28;20650;-79
2023/04/07 12:28:38;;;;;;;3.83;3.50;;;14.50;50.80;;;;;;5112666;28;20648;-79
2023/04/07 12:31:04;;;;;;;5.77;4.33;;;14.50;48.90;;;;;;5112923;28;20174;-78
2023/04/07 12:33:30;;;;;;;134.93;30.47;;;14.50;51.20;;;;;;5112564;28;20274;-82
2023/04/07 12:35:57;;;;;;;22.53;8.83;;;14.40;51.60;;;;;;5112546;28;20180;-74
2023/04/07 12:38:23;;;;;;;4.57;4.00;;;14.50;49.30;;;;;;5112338;28;20211;-79
2023/04/07 12:40:48;;;;;;;9.30;5.50;;;14.50;46.60;;;;;;5112281;28;20438;-82
2023/04/07 12:43:14;;;;;;;3.90;3.60;;;14.60;49.50;;;;;;5112737;28;20213;-81
2023/04/07 12:45:40;;;;;;;4.07;3.67;;;14.60;48.40;;;;;;5114180;28;20231;-81
2023/04/07 12:48:06;;;;;;;4.33;3.50;;;14.70;46.10;;;;;;5116670;28;20645;-82
2023/04/07 12:50:33;;;;;;;7.80;3.50;;;14.60;49.60;;;;;;5117046;28;20166;-84
2023/04/07 12:53:02;;;;;;;3.77;3.47;;;14.60;52.90;;;;;;5113139;28;20165;-81
2023/04/07 12:55:28;;;;;;;4.00;3.60;;;14.70;46.60;;;;;;5112702;28;20181;-80